CheckWX is a tool to help pilots better visualize weather data.  It is not intended as a substitute for an official pre-flight weather briefing.

20:13:42 UTC

KRKW METAR
Rockwood Municipal Airport
Rockwood, Tennessee, USA
Current

19 mins ago

KRKW 231955Z AUTO 30007G14KT 250V330 10SM CLR 26/09 A3005 RMK A01
Observed
Apr-23 @ 19:55 UTC
Wind
  • 300° at 7 KTS
  • Gusting to 14 KTS
Visibility
10 SM
Flight Rules
VFR
Cloud Levels
  • Clear skies
Temperature
26°C / 79°F
Dewpoint
C / 48°F
Humidity
34%
Altimeter
30.05" Hg
Pressure
1017.62 hPa
Previous

39 mins ago

KRKW 231935Z AUTO 00000G14KT 10SM CLR 27/09 A3005 RMK A01
Observed
Apr-23 @ 19:35 UTC
Visibility
10 SM
Flight Rules
VFR
Cloud Levels
  • Clear skies
Temperature
27°C / 81°F
Dewpoint
C / 48°F
Humidity
32%
Altimeter
30.05" Hg
Pressure
1017.62 hPa
Previous

59 mins ago

KRKW 231915Z AUTO VRB05G11KT 10SM CLR 27/09 A3006 RMK A01
Observed
Apr-23 @ 19:15 UTC
Wind
  • Variable at 5 KTS
  • Gusting to 11 KTS
Visibility
10 SM
Flight Rules
VFR
Cloud Levels
  • Clear skies
Temperature
27°C / 81°F
Dewpoint
C / 48°F
Humidity
32%
Altimeter
30.06" Hg
Pressure
1017.92 hPa